TAF

TERMINAL AERODROME FORECAST
STASIUN METEOROLOGI HANG NADIM BATAM
ADDS - METARS form results

Aviation Digital Data Service (ADDS)

Output produced by METARs form (1620 UTC 24 November 2017)
found at http://aviationweather.gov/adds/metars/
 
Forecast for: WIDD (HANG NADIM , ID)
Text: TAF WIDD 241100Z 2412/2512 31004KT 9000 SCT014
Forecast period: 1200 to 1400 UTC 24 November 2017
Forecast type: FROM: standard forecast or significant change
Winds: from the NW (310 degrees) at 5 MPH (4 knots; 2.1 m/s)
Visibility: 6 miles (9 km)
Clouds: scattered clouds at 1400 feet AGL
Weather: no significant weather forecast for this period
Text: BECMG 2414/2416 00000KT
Forecast period: 1400 UTC 24 November 2017 to 1200 UTC 25 November 2017
Forecast type: BECOMING: Conditions expected to become as follows by 1600 UTC 24 November 2017
Winds: calm
Visibility: 6 miles (9 km)
Clouds: scattered clouds at 1400 feet AGL
Weather: no significant weather forecast for this period
Text: TEMPO 2421/2501 4000 TSRA FEW014CB BKN015
Forecast period: 2100 UTC 24 November 2017 to 0100 UTC 25 November 2017
Forecast type: TEMPORARY: The following changes expected for less than half the time period
Visibility: 2.49 miles (4.01 km)
Ceiling: 1500 feet AGL
Clouds: few clouds at 1400 feet AGL
broken clouds at 1500 feet AGL
Weather: TSRA  (rain associated with thunderstorm(s))

Informasi TAF dapat diakses juga di http://aviation.bmkg.go.id